sensor_id;sensor_type;location;lat;lon;timestamp;P1;durP1;ratioP1;P2;durP2;ratioP2
21480;SDS011;10902;48.158;8.634;2023-07-20T00:00:52;7.28;;;2.88;;
21480;SDS011;10902;48.158;8.634;2023-07-20T00:03:38;7.25;;;2.90;;
21480;SDS011;10902;48.158;8.634;2023-07-20T00:06:24;7.30;;;2.80;;
21480;SDS011;10902;48.158;8.634;2023-07-20T00:09:12;6.28;;;2.70;;
21480;SDS011;10902;48.158;8.634;2023-07-20T00:11:58;8.45;;;2.78;;
21480;SDS011;10902;48.158;8.634;2023-07-20T00:14:45;9.25;;;2.80;;
21480;SDS011;10902;48.158;8.634;2023-07-20T00:17:31;8.27;;;3.20;;
21480;SDS011;10902;48.158;8.634;2023-07-20T00:20:16;8.50;;;3.03;;
21480;SDS011;10902;48.158;8.634;2023-07-20T00:23:02;6.45;;;3.05;;
21480;SDS011;10902;48.158;8.634;2023-07-20T00:25:49;6.40;;;3.20;;
21480;SDS011;10902;48.158;8.634;2023-07-20T00:28:34;7.32;;;2.90;;
21480;SDS011;10902;48.158;8.634;2023-07-20T00:31:20;5.18;;;2.85;;
21480;SDS011;10902;48.158;8.634;2023-07-20T00:34:06;6.28;;;2.78;;
21480;SDS011;10902;48.158;8.634;2023-07-20T00:36:52;8.10;;;2.97;;
21480;SDS011;10902;48.158;8.634;2023-07-20T00:39:37;7.15;;;2.95;;
21480;SDS011;10902;48.158;8.634;2023-07-20T00:42:23;6.15;;;3.15;;
21480;SDS011;10902;48.158;8.634;2023-07-20T00:45:09;5.63;;;2.90;;
21480;SDS011;10902;48.158;8.634;2023-07-20T00:47:54;6.63;;;2.78;;
21480;SDS011;10902;48.158;8.634;2023-07-20T00:50:41;7.18;;;3.30;;
21480;SDS011;10902;48.158;8.634;2023-07-20T00:53:27;6.18;;;2.67;;
21480;SDS011;10902;48.158;8.634;2023-07-20T00:56:13;7.13;;;2.75;;
21480;SDS011;10902;48.158;8.634;2023-07-20T00:59:00;7.72;;;3.38;;
21480;SDS011;10902;48.158;8.634;2023-07-20T01:01:47;6.28;;;2.80;;
21480;SDS011;10902;48.158;8.634;2023-07-20T01:04:33;8.57;;;2.90;;
21480;SDS011;10902;48.158;8.634;2023-07-20T01:13:19;7.22;;;3.13;;
21480;SDS011;10902;48.158;8.634;2023-07-20T01:16:06;7.78;;;3.13;;
21480;SDS011;10902;48.158;8.634;2023-07-20T01:18:52;5.80;;;3.08;;
21480;SDS011;10902;48.158;8.634;2023-07-20T01:21:40;7.75;;;3.10;;
21480;SDS011;10902;48.158;8.634;2023-07-20T01:34:10;7.05;;;3.22;;
21480;SDS011;10902;48.158;8.634;2023-07-20T01:36:59;8.48;;;3.22;;
21480;SDS011;10902;48.158;8.634;2023-07-20T01:39:46;9.63;;;3.55;;
21480;SDS011;10902;48.158;8.634;2023-07-20T01:42:32;9.00;;;3.17;;
21480;SDS011;10902;48.158;8.634;2023-07-20T01:45:17;7.82;;;3.28;;
21480;SDS011;10902;48.158;8.634;2023-07-20T01:48:03;6.53;;;3.17;;
21480;SDS011;10902;48.158;8.634;2023-07-20T01:50:49;6.25;;;3.15;;
21480;SDS011;10902;48.158;8.634;2023-07-20T01:53:35;14.90;;;3.05;;
21480;SDS011;10902;48.158;8.634;2023-07-20T01:56:21;5.72;;;3.25;;
21480;SDS011;10902;48.158;8.634;2023-07-20T01:59:07;7.80;;;3.28;;
21480;SDS011;10902;48.158;8.634;2023-07-20T02:01:52;6.35;;;3.30;;
21480;SDS011;10902;48.158;8.634;2023-07-20T02:04:38;7.07;;;3.50;;
21480;SDS011;10902;48.158;8.634;2023-07-20T02:07:28;5.85;;;3.22;;
21480;SDS011;10902;48.158;8.634;2023-07-20T02:10:14;6.93;;;3.38;;
21480;SDS011;10902;48.158;8.634;2023-07-20T02:13:02;11.20;;;3.67;;
21480;SDS011;10902;48.158;8.634;2023-07-20T02:15:48;6.60;;;3.20;;
21480;SDS011;10902;48.158;8.634;2023-07-20T02:18:36;6.85;;;3.25;;
21480;SDS011;10902;48.158;8.634;2023-07-20T02:21:22;6.97;;;3.20;;
21480;SDS011;10902;48.158;8.634;2023-07-20T02:24:08;8.07;;;3.08;;
21480;SDS011;10902;48.158;8.634;2023-07-20T02:26:54;6.43;;;3.03;;
21480;SDS011;10902;48.158;8.634;2023-07-20T02:29:40;5.65;;;3.15;;
21480;SDS011;10902;48.158;8.634;2023-07-20T02:32:31;5.63;;;3.22;;
21480;SDS011;10902;48.158;8.634;2023-07-20T02:35:19;6.90;;;3.05;;
21480;SDS011;10902;48.158;8.634;2023-07-20T02:38:05;5.72;;;3.00;;
21480;SDS011;10902;48.158;8.634;2023-07-20T02:40:52;6.95;;;3.08;;
21480;SDS011;10902;48.158;8.634;2023-07-20T02:43:39;7.40;;;3.20;;
21480;SDS011;10902;48.158;8.634;2023-07-20T02:46:25;7.80;;;3.30;;
21480;SDS011;10902;48.158;8.634;2023-07-20T02:49:13;7.93;;;3.42;;
21480;SDS011;10902;48.158;8.634;2023-07-20T02:52:04;5.32;;;2.92;;
21480;SDS011;10902;48.158;8.634;2023-07-20T02:54:50;8.13;;;3.53;;
21480;SDS011;10902;48.158;8.634;2023-07-20T02:57:38;5.53;;;2.97;;
21480;SDS011;10902;48.158;8.634;2023-07-20T03:00:27;7.45;;;3.38;;
21480;SDS011;10902;48.158;8.634;2023-07-20T03:03:12;7.05;;;3.35;;
21480;SDS011;10902;48.158;8.634;2023-07-20T03:05:58;7.30;;;3.20;;
21480;SDS011;10902;48.158;8.634;2023-07-20T03:08:44;5.63;;;2.90;;
21480;SDS011;10902;48.158;8.634;2023-07-20T03:11:32;5.68;;;3.00;;
21480;SDS011;10902;48.158;8.634;2023-07-20T03:14:19;7.78;;;3.42;;
21480;SDS011;10902;48.158;8.634;2023-07-20T03:17:10;8.80;;;3.25;;
21480;SDS011;10902;48.158;8.634;2023-07-20T03:19:57;6.20;;;3.13;;
21480;SDS011;10902;48.158;8.634;2023-07-20T03:22:45;6.25;;;3.05;;
21480;SDS011;10902;48.158;8.634;2023-07-20T03:25:31;7.45;;;3.22;;
21480;SDS011;10902;48.158;8.634;2023-07-20T03:28:18;7.65;;;2.85;;
21480;SDS011;10902;48.158;8.634;2023-07-20T03:31:05;8.68;;;3.10;;
21480;SDS011;10902;48.158;8.634;2023-07-20T03:33:50;7.47;;;3.15;;
21480;SDS011;10902;48.158;8.634;2023-07-20T03:36:38;5.72;;;2.65;;
21480;SDS011;10902;48.158;8.634;2023-07-20T03:39:24;6.18;;;3.10;;
21480;SDS011;10902;48.158;8.634;2023-07-20T03:42:09;7.88;;;3.47;;
21480;SDS011;10902;48.158;8.634;2023-07-20T03:44:56;6.20;;;3.03;;
21480;SDS011;10902;48.158;8.634;2023-07-20T03:47:43;6.65;;;2.97;;
21480;SDS011;10902;48.158;8.634;2023-07-20T03:50:29;4.97;;;2.60;;
21480;SDS011;10902;48.158;8.634;2023-07-20T03:53:16;7.40;;;2.83;;
21480;SDS011;10902;48.158;8.634;2023-07-20T03:56:03;5.88;;;2.78;;
21480;SDS011;10902;48.158;8.634;2023-07-20T03:58:48;8.52;;;3.25;;
21480;SDS011;10902;48.158;8.634;2023-07-20T04:01:34;7.53;;;3.28;;
21480;SDS011;10902;48.158;8.634;2023-07-20T04:04:21;7.75;;;3.13;;
21480;SDS011;10902;48.158;8.634;2023-07-20T04:07:07;6.07;;;2.60;;
21480;SDS011;10902;48.158;8.634;2023-07-20T04:09:58;6.88;;;2.90;;
21480;SDS011;10902;48.158;8.634;2023-07-20T04:12:46;4.60;;;2.50;;
21480;SDS011;10902;48.158;8.634;2023-07-20T04:15:32;6.35;;;2.78;;
21480;SDS011;10902;48.158;8.634;2023-07-20T04:18:17;6.75;;;2.65;;
21480;SDS011;10902;48.158;8.634;2023-07-20T04:21:04;6.75;;;2.75;;
21480;SDS011;10902;48.158;8.634;2023-07-20T04:23:54;5.85;;;2.45;;
21480;SDS011;10902;48.158;8.634;2023-07-20T04:26:40;4.60;;;2.30;;
21480;SDS011;10902;48.158;8.634;2023-07-20T04:29:27;6.22;;;2.60;;
21480;SDS011;10902;48.158;8.634;2023-07-20T04:32:14;7.20;;;2.85;;
21480;SDS011;10902;48.158;8.634;2023-07-20T04:34:59;6.32;;;2.65;;
21480;SDS011;10902;48.158;8.634;2023-07-20T04:37:45;6.18;;;2.50;;
21480;SDS011;10902;48.158;8.634;2023-07-20T04:40:31;6.68;;;2.80;;
21480;SDS011;10902;48.158;8.634;2023-07-20T04:43:18;6.38;;;2.92;;
21480;SDS011;10902;48.158;8.634;2023-07-20T04:46:04;8.05;;;2.92;;
21480;SDS011;10902;48.158;8.634;2023-07-20T04:48:50;6.57;;;2.90;;
21480;SDS011;10902;48.158;8.634;2023-07-20T04:51:35;6.18;;;2.92;;
21480;SDS011;10902;48.158;8.634;2023-07-20T04:54:24;7.82;;;2.97;;
21480;SDS011;10902;48.158;8.634;2023-07-20T04:57:11;7.40;;;2.97;;
21480;SDS011;10902;48.158;8.634;2023-07-20T04:59:57;6.38;;;3.08;;
21480;SDS011;10902;48.158;8.634;2023-07-20T05:02:42;6.10;;;2.70;;
21480;SDS011;10902;48.158;8.634;2023-07-20T05:05:31;5.72;;;2.90;;
21480;SDS011;10902;48.158;8.634;2023-07-20T05:08:18;7.82;;;3.28;;
21480;SDS011;10902;48.158;8.634;2023-07-20T05:11:04;7.90;;;3.30;;
21480;SDS011;10902;48.158;8.634;2023-07-20T05:13:50;7.47;;;3.20;;
21480;SDS011;10902;48.158;8.634;2023-07-20T05:16:38;6.57;;;3.03;;
21480;SDS011;10902;48.158;8.634;2023-07-20T05:19:24;5.88;;;3.15;;
21480;SDS011;10902;48.158;8.634;2023-07-20T05:22:11;7.47;;;3.72;;
21480;SDS011;10902;48.158;8.634;2023-07-20T05:25:01;6.68;;;3.10;;
21480;SDS011;10902;48.158;8.634;2023-07-20T05:27:47;6.40;;;3.00;;
21480;SDS011;10902;48.158;8.634;2023-07-20T05:30:35;6.97;;;3.38;;
21480;SDS011;10902;48.158;8.634;2023-07-20T05:33:21;6.93;;;3.38;;
21480;SDS011;10902;48.158;8.634;2023-07-20T05:36:10;8.20;;;3.40;;
21480;SDS011;10902;48.158;8.634;2023-07-20T05:38:56;8.45;;;3.13;;
21480;SDS011;10902;48.158;8.634;2023-07-20T05:41:46;5.80;;;3.30;;
21480;SDS011;10902;48.158;8.634;2023-07-20T05:44:36;9.23;;;4.75;;
21480;SDS011;10902;48.158;8.634;2023-07-20T05:47:23;7.10;;;3.38;;
21480;SDS011;10902;48.158;8.634;2023-07-20T05:50:25;6.82;;;2.90;;
21480;SDS011;10902;48.158;8.634;2023-07-20T05:53:13;6.70;;;3.10;;
21480;SDS011;10902;48.158;8.634;2023-07-20T05:55:58;9.02;;;3.38;;
21480;SDS011;10902;48.158;8.634;2023-07-20T05:58:44;6.68;;;2.85;;
21480;SDS011;10902;48.158;8.634;2023-07-20T06:01:33;6.97;;;3.58;;
21480;SDS011;10902;48.158;8.634;2023-07-20T06:04:20;8.95;;;4.13;;
21480;SDS011;10902;48.158;8.634;2023-07-20T06:07:06;9.90;;;3.63;;
21480;SDS011;10902;48.158;8.634;2023-07-20T06:09:53;5.72;;;3.30;;
21480;SDS011;10902;48.158;8.634;2023-07-20T06:12:40;7.28;;;3.28;;
21480;SDS011;10902;48.158;8.634;2023-07-20T06:15:34;7.68;;;3.55;;
21480;SDS011;10902;48.158;8.634;2023-07-20T06:18:22;8.90;;;3.50;;
21480;SDS011;10902;48.158;8.634;2023-07-20T06:21:09;10.18;;;3.90;;
21480;SDS011;10902;48.158;8.634;2023-07-20T06:23:54;6.82;;;3.10;;
21480;SDS011;10902;48.158;8.634;2023-07-20T06:26:40;7.97;;;3.47;;
21480;SDS011;10902;48.158;8.634;2023-07-20T06:29:26;7.60;;;3.10;;
21480;SDS011;10902;48.158;8.634;2023-07-20T06:32:16;6.28;;;3.33;;
21480;SDS011;10902;48.158;8.634;2023-07-20T06:35:05;5.72;;;3.00;;
21480;SDS011;10902;48.158;8.634;2023-07-20T06:37:53;7.10;;;2.90;;
21480;SDS011;10902;48.158;8.634;2023-07-20T06:40:39;6.28;;;3.10;;
21480;SDS011;10902;48.158;8.634;2023-07-20T06:43:25;7.35;;;2.80;;
21480;SDS011;10902;48.158;8.634;2023-07-20T06:46:11;4.70;;;2.58;;
21480;SDS011;10902;48.158;8.634;2023-07-20T06:48:59;7.63;;;2.88;;
21480;SDS011;10902;48.158;8.634;2023-07-20T06:51:45;7.88;;;2.95;;
21480;SDS011;10902;48.158;8.634;2023-07-20T06:54:31;7.05;;;3.20;;
21480;SDS011;10902;48.158;8.634;2023-07-20T06:57:21;6.10;;;2.80;;
21480;SDS011;10902;48.158;8.634;2023-07-20T07:00:07;6.53;;;2.83;;
21480;SDS011;10902;48.158;8.634;2023-07-20T07:02:53;8.00;;;3.13;;
21480;SDS011;10902;48.158;8.634;2023-07-20T07:05:39;5.45;;;2.30;;
21480;SDS011;10902;48.158;8.634;2023-07-20T07:08:24;4.97;;;2.33;;
21480;SDS011;10902;48.158;8.634;2023-07-20T07:11:13;4.72;;;2.47;;
21480;SDS011;10902;48.158;8.634;2023-07-20T07:14:01;6.75;;;2.95;;
21480;SDS011;10902;48.158;8.634;2023-07-20T07:16:47;5.65;;;2.60;;
21480;SDS011;10902;48.158;8.634;2023-07-20T07:19:34;6.53;;;2.70;;
21480;SDS011;10902;48.158;8.634;2023-07-20T07:22:21;5.65;;;2.33;;
21480;SDS011;10902;48.158;8.634;2023-07-20T07:25:07;7.57;;;2.67;;
21480;SDS011;10902;48.158;8.634;2023-07-20T07:27:53;6.20;;;2.45;;
21480;SDS011;10902;48.158;8.634;2023-07-20T07:30:42;6.93;;;2.33;;
21480;SDS011;10902;48.158;8.634;2023-07-20T07:33:29;4.95;;;2.17;;
21480;SDS011;10902;48.158;8.634;2023-07-20T07:36:19;5.50;;;1.98;;
21480;SDS011;10902;48.158;8.634;2023-07-20T07:39:06;6.50;;;2.08;;
21480;SDS011;10902;48.158;8.634;2023-07-20T07:41:55;7.30;;;2.17;;
21480;SDS011;10902;48.158;8.634;2023-07-20T07:44:41;6.53;;;2.20;;
21480;SDS011;10902;48.158;8.634;2023-07-20T07:47:29;6.28;;;2.20;;
21480;SDS011;10902;48.158;8.634;2023-07-20T07:50:18;4.90;;;2.20;;
21480;SDS011;10902;48.158;8.634;2023-07-20T07:53:05;6.95;;;1.60;;
21480;SDS011;10902;48.158;8.634;2023-07-20T07:55:51;6.07;;;2.17;;
21480;SDS011;10902;48.158;8.634;2023-07-20T07:58:41;5.55;;;2.22;;
21480;SDS011;10902;48.158;8.634;2023-07-20T08:01:26;5.43;;;2.10;;
21480;SDS011;10902;48.158;8.634;2023-07-20T08:04:19;5.43;;;2.20;;
21480;SDS011;10902;48.158;8.634;2023-07-20T08:07:06;4.85;;;2.20;;
21480;SDS011;10902;48.158;8.634;2023-07-20T08:09:54;5.85;;;2.17;;
21480;SDS011;10902;48.158;8.634;2023-07-20T08:12:40;7.60;;;2.28;;
21480;SDS011;10902;48.158;8.634;2023-07-20T08:15:26;5.30;;;2.15;;
21480;SDS011;10902;48.158;8.634;2023-07-20T08:18:17;5.57;;;2.20;;
21480;SDS011;10902;48.158;8.634;2023-07-20T08:21:03;5.93;;;2.15;;
21480;SDS011;10902;48.158;8.634;2023-07-20T08:23:49;6.57;;;2.20;;
21480;SDS011;10902;48.158;8.634;2023-07-20T08:26:35;4.68;;;2.17;;
21480;SDS011;10902;48.158;8.634;2023-07-20T08:29:21;6.07;;;2.33;;
21480;SDS011;10902;48.158;8.634;2023-07-20T08:32:11;6.95;;;2.55;;
21480;SDS011;10902;48.158;8.634;2023-07-20T08:35:00;7.10;;;2.28;;
21480;SDS011;10902;48.158;8.634;2023-07-20T08:37:46;4.00;;;1.70;;
21480;SDS011;10902;48.158;8.634;2023-07-20T08:40:33;7.15;;;2.05;;
21480;SDS011;10902;48.158;8.634;2023-07-20T08:43:27;6.60;;;1.90;;
21480;SDS011;10902;48.158;8.634;2023-07-20T08:46:13;6.32;;;2.00;;
21480;SDS011;10902;48.158;8.634;2023-07-20T08:49:01;5.28;;;2.05;;
21480;SDS011;10902;48.158;8.634;2023-07-20T08:51:59;5.03;;;1.55;;
21480;SDS011;10902;48.158;8.634;2023-07-20T08:54:45;6.72;;;2.15;;
21480;SDS011;10902;48.158;8.634;2023-07-20T08:57:32;4.93;;;1.90;;
21480;SDS011;10902;48.158;8.634;2023-07-20T09:00:19;5.18;;;2.22;;
21480;SDS011;10902;48.158;8.634;2023-07-20T09:03:08;5.45;;;1.98;;
21480;SDS011;10902;48.158;8.634;2023-07-20T09:05:55;5.45;;;2.00;;
21480;SDS011;10902;48.158;8.634;2023-07-20T09:08:46;4.85;;;1.60;;
21480;SDS011;10902;48.158;8.634;2023-07-20T09:11:33;4.18;;;2.00;;
21480;SDS011;10902;48.158;8.634;2023-07-20T09:14:18;5.15;;;1.85;;
21480;SDS011;10902;48.158;8.634;2023-07-20T09:17:04;5.05;;;1.83;;
21480;SDS011;10902;48.158;8.634;2023-07-20T09:19:52;5.88;;;1.70;;
21480;SDS011;10902;48.158;8.634;2023-07-20T09:22:39;4.50;;;1.80;;
21480;SDS011;10902;48.158;8.634;2023-07-20T09:25:26;4.20;;;1.70;;
21480;SDS011;10902;48.158;8.634;2023-07-20T09:28:14;3.92;;;1.63;;
21480;SDS011;10902;48.158;8.634;2023-07-20T09:31:02;3.80;;;1.60;;
21480;SDS011;10902;48.158;8.634;2023-07-20T09:34:04;5.05;;;2.20;;
21480;SDS011;10902;48.158;8.634;2023-07-20T09:36:50;5.25;;;1.80;;
21480;SDS011;10902;48.158;8.634;2023-07-20T09:39:46;3.50;;;1.70;;
21480;SDS011;10902;48.158;8.634;2023-07-20T09:42:31;4.60;;;1.65;;
21480;SDS011;10902;48.158;8.634;2023-07-20T09:45:19;5.68;;;1.90;;
21480;SDS011;10902;48.158;8.634;2023-07-20T09:48:09;4.53;;;1.70;;
21480;SDS011;10902;48.158;8.634;2023-07-20T09:50:55;5.13;;;1.63;;
21480;SDS011;10902;48.158;8.634;2023-07-20T09:53:42;5.03;;;2.10;;
21480;SDS011;10902;48.158;8.634;2023-07-20T09:56:29;6.75;;;1.85;;
21480;SDS011;10902;48.158;8.634;2023-07-20T09:59:16;3.25;;;1.55;;
21480;SDS011;10902;48.158;8.634;2023-07-20T10:02:05;4.32;;;1.58;;
21480;SDS011;10902;48.158;8.634;2023-07-20T10:05:03;4.10;;;1.80;;
21480;SDS011;10902;48.158;8.634;2023-07-20T10:07:50;3.17;;;1.45;;
21480;SDS011;10902;48.158;8.634;2023-07-20T10:10:37;4.82;;;1.50;;
21480;SDS011;10902;48.158;8.634;2023-07-20T10:13:30;4.13;;;1.88;;
21480;SDS011;10902;48.158;8.634;2023-07-20T10:16:28;3.97;;;1.70;;
21480;SDS011;10902;48.158;8.634;2023-07-20T10:19:40;5.93;;;1.75;;
21480;SDS011;10902;48.158;8.634;2023-07-20T10:22:34;4.38;;;1.65;;
21480;SDS011;10902;48.158;8.634;2023-07-20T10:25:22;3.72;;;1.52;;
21480;SDS011;10902;48.158;8.634;2023-07-20T10:28:08;4.90;;;1.90;;
21480;SDS011;10902;48.158;8.634;2023-07-20T10:30:57;3.53;;;1.55;;
21480;SDS011;10902;48.158;8.634;2023-07-20T10:33:45;5.05;;;2.08;;
21480;SDS011;10902;48.158;8.634;2023-07-20T10:36:32;4.13;;;1.70;;
21480;SDS011;10902;48.158;8.634;2023-07-20T10:39:31;4.05;;;1.70;;
21480;SDS011;10902;48.158;8.634;2023-07-20T10:42:17;4.68;;;1.70;;
21480;SDS011;10902;48.158;8.634;2023-07-20T10:45:07;4.43;;;2.03;;
21480;SDS011;10902;48.158;8.634;2023-07-20T10:47:53;3.20;;;1.45;;
21480;SDS011;10902;48.158;8.634;2023-07-20T10:50:42;4.72;;;1.48;;
21480;SDS011;10902;48.158;8.634;2023-07-20T10:53:28;3.80;;;1.70;;
21480;SDS011;10902;48.158;8.634;2023-07-20T10:56:15;4.97;;;1.77;;
21480;SDS011;10902;48.158;8.634;2023-07-20T11:02:09;3.75;;;1.70;;
21480;SDS011;10902;48.158;8.634;2023-07-20T11:04:55;4.07;;;1.88;;
21480;SDS011;10902;48.158;8.634;2023-07-20T11:07:41;4.13;;;1.65;;
21480;SDS011;10902;48.158;8.634;2023-07-20T11:10:27;3.88;;;1.90;;
21480;SDS011;10902;48.158;8.634;2023-07-20T11:13:18;4.05;;;1.60;;
21480;SDS011;10902;48.158;8.634;2023-07-20T11:16:06;5.30;;;1.80;;
21480;SDS011;10902;48.158;8.634;2023-07-20T11:18:52;3.72;;;1.52;;
21480;SDS011;10902;48.158;8.634;2023-07-20T11:21:42;4.53;;;1.65;;
21480;SDS011;10902;48.158;8.634;2023-07-20T11:24:29;6.47;;;1.65;;
21480;SDS011;10902;48.158;8.634;2023-07-20T11:27:15;4.25;;;1.63;;
21480;SDS011;10902;48.158;8.634;2023-07-20T11:30:00;6.90;;;1.80;;
21480;SDS011;10902;48.158;8.634;2023-07-20T11:32:49;4.20;;;1.58;;
21480;SDS011;10902;48.158;8.634;2023-07-20T11:35:35;5.07;;;1.63;;
21480;SDS011;10902;48.158;8.634;2023-07-20T11:38:27;4.20;;;1.65;;
21480;SDS011;10902;48.158;8.634;2023-07-20T11:41:13;4.50;;;1.90;;
21480;SDS011;10902;48.158;8.634;2023-07-20T11:43:59;3.75;;;1.55;;
21480;SDS011;10902;48.158;8.634;2023-07-20T11:46:45;4.95;;;1.70;;
21480;SDS011;10902;48.158;8.634;2023-07-20T11:49:38;4.65;;;1.60;;
21480;SDS011;10902;48.158;8.634;2023-07-20T11:52:27;5.63;;;1.60;;
21480;SDS011;10902;48.158;8.634;2023-07-20T11:55:13;3.80;;;1.60;;
21480;SDS011;10902;48.158;8.634;2023-07-20T11:58:06;5.45;;;1.60;;
21480;SDS011;10902;48.158;8.634;2023-07-20T12:00:52;5.15;;;1.73;;
21480;SDS011;10902;48.158;8.634;2023-07-20T12:03:44;4.63;;;1.83;;
21480;SDS011;10902;48.158;8.634;2023-07-20T12:06:29;5.07;;;1.70;;
21480;SDS011;10902;48.158;8.634;2023-07-20T12:09:16;6.20;;;1.50;;
21480;SDS011;10902;48.158;8.634;2023-07-20T12:12:03;3.95;;;1.60;;
21480;SDS011;10902;48.158;8.634;2023-07-20T12:15:11;5.13;;;1.60;;
21480;SDS011;10902;48.158;8.634;2023-07-20T12:18:01;4.43;;;1.67;;
21480;SDS011;10902;48.158;8.634;2023-07-20T12:20:47;3.15;;;1.45;;
21480;SDS011;10902;48.158;8.634;2023-07-20T12:23:39;3.78;;;1.38;;
21480;SDS011;10902;48.158;8.634;2023-07-20T12:26:26;4.80;;;1.60;;
21480;SDS011;10902;48.158;8.634;2023-07-20T12:29:14;3.88;;;1.25;;
21480;SDS011;10902;48.158;8.634;2023-07-20T12:31:59;3.85;;;1.63;;
21480;SDS011;10902;48.158;8.634;2023-07-20T12:34:45;3.50;;;1.50;;
21480;SDS011;10902;48.158;8.634;2023-07-20T12:37:30;4.93;;;1.58;;
21480;SDS011;10902;48.158;8.634;2023-07-20T12:40:17;6.07;;;1.70;;
21480;SDS011;10902;48.158;8.634;2023-07-20T12:43:02;3.90;;;1.50;;
21480;SDS011;10902;48.158;8.634;2023-07-20T12:45:49;3.92;;;1.40;;
21480;SDS011;10902;48.158;8.634;2023-07-20T12:48:35;4.20;;;1.30;;
21480;SDS011;10902;48.158;8.634;2023-07-20T12:51:25;3.00;;;1.40;;
21480;SDS011;10902;48.158;8.634;2023-07-20T12:54:11;4.30;;;1.38;;
21480;SDS011;10902;48.158;8.634;2023-07-20T12:56:57;3.65;;;1.70;;
21480;SDS011;10902;48.158;8.634;2023-07-20T12:59:42;4.65;;;1.65;;
21480;SDS011;10902;48.158;8.634;2023-07-20T13:02:28;3.55;;;1.45;;
21480;SDS011;10902;48.158;8.634;2023-07-20T13:05:14;4.35;;;1.75;;
21480;SDS011;10902;48.158;8.634;2023-07-20T13:08:00;4.85;;;1.50;;
21480;SDS011;10902;48.158;8.634;2023-07-20T13:10:46;3.42;;;1.42;;
21480;SDS011;10902;48.158;8.634;2023-07-20T13:13:33;4.22;;;1.58;;
21480;SDS011;10902;48.158;8.634;2023-07-20T13:16:19;4.03;;;1.50;;
21480;SDS011;10902;48.158;8.634;2023-07-20T13:19:05;4.43;;;1.45;;
21480;SDS011;10902;48.158;8.634;2023-07-20T13:21:51;5.35;;;2.00;;
21480;SDS011;10902;48.158;8.634;2023-07-20T13:24:36;6.68;;;1.88;;
21480;SDS011;10902;48.158;8.634;2023-07-20T13:27:22;3.58;;;1.40;;
21480;SDS011;10902;48.158;8.634;2023-07-20T13:30:07;4.07;;;1.55;;
21480;SDS011;10902;48.158;8.634;2023-07-20T13:32:55;5.82;;;1.63;;
21480;SDS011;10902;48.158;8.634;2023-07-20T13:35:40;3.20;;;1.23;;
21480;SDS011;10902;48.158;8.634;2023-07-20T13:38:26;3.55;;;1.40;;
21480;SDS011;10902;48.158;8.634;2023-07-20T13:41:12;5.20;;;1.83;;
21480;SDS011;10902;48.158;8.634;2023-07-20T13:43:57;4.07;;;1.55;;
21480;SDS011;10902;48.158;8.634;2023-07-20T13:46:43;4.05;;;1.58;;
21480;SDS011;10902;48.158;8.634;2023-07-20T13:49:29;3.17;;;1.33;;
21480;SDS011;10902;48.158;8.634;2023-07-20T13:52:14;3.95;;;1.48;;
21480;SDS011;10902;48.158;8.634;2023-07-20T13:55:00;7.45;;;1.98;;
21480;SDS011;10902;48.158;8.634;2023-07-20T13:57:47;3.97;;;1.20;;
21480;SDS011;10902;48.158;8.634;2023-07-20T14:00:33;3.53;;;1.35;;
21480;SDS011;10902;48.158;8.634;2023-07-20T14:03:19;3.33;;;1.30;;
21480;SDS011;10902;48.158;8.634;2023-07-20T14:06:05;4.72;;;1.73;;
21480;SDS011;10902;48.158;8.634;2023-07-20T14:08:51;5.13;;;1.60;;
21480;SDS011;10902;48.158;8.634;2023-07-20T14:11:38;4.57;;;1.80;;
21480;SDS011;10902;48.158;8.634;2023-07-20T14:14:23;4.65;;;1.65;;
21480;SDS011;10902;48.158;8.634;2023-07-20T14:17:09;4.43;;;1.70;;
21480;SDS011;10902;48.158;8.634;2023-07-20T14:19:54;3.72;;;1.52;;
21480;SDS011;10902;48.158;8.634;2023-07-20T14:22:40;3.40;;;1.52;;
21480;SDS011;10902;48.158;8.634;2023-07-20T14:25:26;4.13;;;1.35;;
21480;SDS011;10902;48.158;8.634;2023-07-20T14:28:12;4.47;;;1.60;;
21480;SDS011;10902;48.158;8.634;2023-07-20T14:30:58;4.13;;;1.40;;
21480;SDS011;10902;48.158;8.634;2023-07-20T14:33:43;4.05;;;1.80;;
21480;SDS011;10902;48.158;8.634;2023-07-20T14:36:29;4.45;;;1.55;;
21480;SDS011;10902;48.158;8.634;2023-07-20T14:39:15;4.70;;;1.92;;
21480;SDS011;10902;48.158;8.634;2023-07-20T14:42:01;4.20;;;1.67;;
21480;SDS011;10902;48.158;8.634;2023-07-20T14:44:48;4.07;;;1.60;;
21480;SDS011;10902;48.158;8.634;2023-07-20T14:47:34;3.92;;;1.70;;
21480;SDS011;10902;48.158;8.634;2023-07-20T14:50:20;3.60;;;1.73;;
21480;SDS011;10902;48.158;8.634;2023-07-20T14:53:06;5.30;;;1.60;;
21480;SDS011;10902;48.158;8.634;2023-07-20T14:55:52;3.17;;;1.50;;
21480;SDS011;10902;48.158;8.634;2023-07-20T14:58:38;3.80;;;1.75;;
21480;SDS011;10902;48.158;8.634;2023-07-20T15:01:23;3.60;;;1.70;;
21480;SDS011;10902;48.158;8.634;2023-07-20T15:04:09;4.80;;;1.67;;
21480;SDS011;10902;48.158;8.634;2023-07-20T15:06:54;4.50;;;2.20;;
21480;SDS011;10902;48.158;8.634;2023-07-20T15:09:41;4.85;;;1.55;;
21480;SDS011;10902;48.158;8.634;2023-07-20T15:12:27;4.18;;;1.50;;
21480;SDS011;10902;48.158;8.634;2023-07-20T15:15:13;5.75;;;1.55;;
21480;SDS011;10902;48.158;8.634;2023-07-20T15:17:59;4.57;;;1.70;;
21480;SDS011;10902;48.158;8.634;2023-07-20T15:20:45;6.10;;;1.55;;
21480;SDS011;10902;48.158;8.634;2023-07-20T15:23:32;3.38;;;1.42;;
21480;SDS011;10902;48.158;8.634;2023-07-20T15:26:18;3.67;;;1.50;;
21480;SDS011;10902;48.158;8.634;2023-07-20T15:29:04;5.03;;;1.50;;
21480;SDS011;10902;48.158;8.634;2023-07-20T15:31:49;3.90;;;1.60;;
21480;SDS011;10902;48.158;8.634;2023-07-20T15:34:35;3.92;;;1.77;;
21480;SDS011;10902;48.158;8.634;2023-07-20T15:37:20;3.80;;;1.48;;
21480;SDS011;10902;48.158;8.634;2023-07-20T15:40:06;3.38;;;1.65;;
21480;SDS011;10902;48.158;8.634;2023-07-20T15:42:52;5.22;;;2.40;;
21480;SDS011;10902;48.158;8.634;2023-07-20T15:45:38;3.63;;;1.60;;
21480;SDS011;10902;48.158;8.634;2023-07-20T15:48:24;3.75;;;1.67;;
21480;SDS011;10902;48.158;8.634;2023-07-20T15:51:10;4.80;;;1.73;;
21480;SDS011;10902;48.158;8.634;2023-07-20T15:53:55;3.78;;;1.70;;
21480;SDS011;10902;48.158;8.634;2023-07-20T15:56:41;5.55;;;1.88;;
21480;SDS011;10902;48.158;8.634;2023-07-20T15:59:28;4.63;;;1.58;;
21480;SDS011;10902;48.158;8.634;2023-07-20T16:02:13;4.78;;;1.65;;
21480;SDS011;10902;48.158;8.634;2023-07-20T16:04:59;5.40;;;2.00;;
21480;SDS011;10902;48.158;8.634;2023-07-20T16:07:45;3.95;;;1.75;;
21480;SDS011;10902;48.158;8.634;2023-07-20T16:10:30;5.68;;;1.88;;
21480;SDS011;10902;48.158;8.634;2023-07-20T16:13:16;4.53;;;2.03;;
21480;SDS011;10902;48.158;8.634;2023-07-20T16:16:02;3.72;;;1.80;;
21480;SDS011;10902;48.158;8.634;2023-07-20T16:18:48;3.28;;;1.40;;
21480;SDS011;10902;48.158;8.634;2023-07-20T16:21:35;3.75;;;1.85;;
21480;SDS011;10902;48.158;8.634;2023-07-20T16:24:20;5.18;;;2.08;;
21480;SDS011;10902;48.158;8.634;2023-07-20T16:27:07;3.88;;;1.67;;
21480;SDS011;10902;48.158;8.634;2023-07-20T16:29:52;3.60;;;1.65;;
21480;SDS011;10902;48.158;8.634;2023-07-20T16:32:40;5.10;;;1.80;;
21480;SDS011;10902;48.158;8.634;2023-07-20T16:35:29;3.45;;;1.45;;
21480;SDS011;10902;48.158;8.634;2023-07-20T16:38:14;4.78;;;1.80;;
21480;SDS011;10902;48.158;8.634;2023-07-20T16:41:00;3.88;;;1.60;;
21480;SDS011;10902;48.158;8.634;2023-07-20T16:43:46;3.80;;;1.63;;
21480;SDS011;10902;48.158;8.634;2023-07-20T16:46:32;3.83;;;1.88;;
21480;SDS011;10902;48.158;8.634;2023-07-20T16:49:18;5.88;;;1.70;;
21480;SDS011;10902;48.158;8.634;2023-07-20T16:52:04;4.97;;;1.65;;
21480;SDS011;10902;48.158;8.634;2023-07-20T16:54:50;4.88;;;1.63;;
21480;SDS011;10902;48.158;8.634;2023-07-20T16:57:35;4.07;;;1.80;;
21480;SDS011;10902;48.158;8.634;2023-07-20T17:00:22;3.67;;;1.80;;
21480;SDS011;10902;48.158;8.634;2023-07-20T17:03:08;7.45;;;1.92;;
21480;SDS011;10902;48.158;8.634;2023-07-20T17:05:54;4.75;;;1.83;;